Time;durP1;ratioP1;P1;durP2;ratioP2;P2;SDS_P1;SDS_P2;PMS_P1;PMS_P2;Temp;Humidity;BMP_temperature;BMP_pressure;BME280_temperature;BME280_humidity;BME280_pressure;Samples;Min_cycle;Max_cycle;Signal;HPM_P1;HPM_P2
2024/01/04 00:00:54;;;;;;;9.70;4.75;;;;;;;8.97;100.00;98744.44;5052978;28;20049;-45
2024/01/04 00:03:25;;;;;;;8.82;5.00;;;;;;;9.02;100.00;98749.41;5053285;28;20061;-45
2024/01/04 00:05:54;;;;;;;10.25;4.88;;;;;;;9.08;100.00;98754.25;5053189;28;20049;-46
2024/01/04 00:08:23;;;;;;;11.23;4.72;;;;;;;9.11;100.00;98760.19;5052863;28;20158;-47
2024/01/04 00:10:51;;;;;;;11.10;5.60;;;;;;;9.02;100.00;98760.03;5052931;28;20132;-46
2024/01/04 00:13:19;;;;;;;10.15;4.82;;;;;;;9.02;100.00;98766.22;5052771;28;20461;-45
2024/01/04 00:15:48;;;;;;;11.38;5.32;;;;;;;9.04;100.00;98753.63;5052850;28;20056;-45
2024/01/04 00:18:18;;;;;;;7.75;4.40;;;;;;;8.95;100.00;98764.97;5052593;28;20130;-46
2024/01/04 00:20:46;;;;;;;10.40;4.70;;;;;;;8.98;100.00;98751.47;5052910;28;20064;-49
2024/01/04 00:23:15;;;;;;;9.75;4.53;;;;;;;8.97;100.00;98752.41;5052625;28;20049;-47
2024/01/04 00:25:43;;;;;;;10.65;5.00;;;;;;;8.95;100.00;98753.50;5052612;28;20049;-48
2024/01/04 00:28:12;;;;;;;8.45;4.78;;;;;;;8.91;100.00;98747.56;5052845;28;20048;-46
2024/01/04 00:30:40;;;;;;;11.82;5.47;;;;;;;8.98;100.00;98754.13;5052715;28;20048;-46
2024/01/04 00:33:09;;;;;;;10.73;5.03;;;;;;;8.97;100.00;98760.38;5052572;28;20099;-45
2024/01/04 00:35:39;;;;;;;8.70;5.07;;;;;;;9.00;100.00;98761.97;5052441;28;20430;-46
2024/01/04 00:38:08;;;;;;;10.25;4.90;;;;;;;9.00;100.00;98754.00;5052391;28;20213;-46
2024/01/04 00:40:39;;;;;;;7.95;4.65;;;;;;;9.04;100.00;98742.16;5052228;28;20053;-47
2024/01/04 00:43:07;;;;;;;8.73;4.68;;;;;;;8.99;100.00;98750.50;5052615;28;20067;-46
2024/01/04 00:45:35;;;;;;;10.32;4.90;;;;;;;9.03;100.00;98743.97;5052505;28;20052;-46
2024/01/04 00:48:04;;;;;;;8.38;4.55;;;;;;;9.13;100.00;98763.56;5052150;28;20145;-45
2024/01/04 00:50:36;;;;;;;8.05;4.18;;;;;;;9.13;100.00;98742.28;5052352;28;20076;-45
2024/01/04 00:53:05;;;;;;;9.13;4.43;;;;;;;9.13;100.00;98757.41;5052009;28;20133;-46
2024/01/04 00:55:37;;;;;;;9.88;4.90;;;;;;;9.12;100.00;98755.69;5052446;28;20049;-46
2024/01/04 00:58:06;;;;;;;9.40;4.50;;;;;;;9.10;100.00;98737.22;5052264;28;20049;-45
2024/01/04 01:00:34;;;;;;;9.50;4.28;;;;;;;9.08;100.00;98752.44;5052193;28;20052;-46
2024/01/04 01:03:03;;;;;;;8.77;4.70;;;;;;;9.10;100.00;98745.19;5051927;28;20049;-45
2024/01/04 01:05:31;;;;;;;10.82;4.53;;;;;;;9.09;100.00;98732.00;5051843;28;20045;-46
2024/01/04 01:08:01;;;;;;;12.40;4.35;;;;;;;9.08;100.00;98728.50;5052088;28;20049;-46
2024/01/04 01:10:32;;;;;;;11.77;4.20;;;;;;;9.08;100.00;98738.31;5052039;28;20052;-45
2024/01/04 01:13:00;;;;;;;10.10;4.40;;;;;;;9.03;100.00;98730.66;5051818;28;20516;-45
2024/01/04 01:15:29;;;;;;;8.00;3.90;;;;;;;9.07;100.00;98734.81;5051819;28;20130;-46
2024/01/04 01:17:57;;;;;;;8.85;3.97;;;;;;;9.08;100.00;98727.66;5051577;28;20053;-46
2024/01/04 01:20:26;;;;;;;9.00;4.03;;;;;;;9.05;100.00;98715.44;5051557;28;20049;-45
2024/01/04 01:22:54;;;;;;;8.85;4.15;;;;;;;9.04;100.00;98713.75;5051460;28;20045;-45
2024/01/04 01:25:22;;;;;;;11.18;4.10;;;;;;;9.02;100.00;98704.19;5051593;28;20118;-46
2024/01/04 01:27:52;;;;;;;9.60;4.13;;;;;;;9.03;100.00;98692.59;5051838;28;20048;-46
2024/01/04 01:30:21;;;;;;;8.27;4.32;;;;;;;9.03;100.00;98693.44;5051635;28;20237;-46
2024/01/04 01:32:49;;;;;;;9.07;4.05;;;;;;;9.03;100.00;98696.09;5051485;28;20049;-45
2024/01/04 01:35:18;;;;;;;8.90;4.07;;;;;;;9.03;100.00;98688.09;5051431;28;20501;-46
2024/01/04 01:37:46;;;;;;;7.43;3.97;;;;;;;9.04;100.00;98697.78;5051432;28;20513;-46
2024/01/04 01:40:14;;;;;;;9.75;4.03;;;;;;;8.98;100.00;98705.41;5051417;28;20055;-46
2024/01/04 01:42:47;;;;;;;10.57;4.22;;;;;;;8.99;100.00;98713.25;5051331;28;20049;-45
2024/01/04 01:45:17;;;;;;;7.38;4.05;;;;;;;8.99;100.00;98715.94;5051315;28;20049;-45
2024/01/04 01:47:47;;;;;;;8.00;4.13;;;;;;;8.87;100.00;98724.84;5051579;28;20076;-46
2024/01/04 01:50:18;;;;;;;10.23;4.00;;;;;;;8.87;100.00;98725.69;5051378;28;20075;-47
2024/01/04 01:52:48;;;;;;;8.60;4.30;;;;;;;8.85;100.00;98737.41;5051276;28;20076;-45
2024/01/04 01:55:17;;;;;;;8.60;4.30;;;;;;;8.80;100.00;98736.94;5051500;28;20056;-45
2024/01/04 01:57:45;;;;;;;9.95;4.38;;;;;;;8.82;100.00;98740.31;5051236;28;20129;-46
2024/01/04 02:00:17;;;;;;;10.30;4.38;;;;;;;8.76;100.00;98743.44;5053472;28;20076;-45
2024/01/04 02:02:48;;;;;;;10.68;4.47;;;;;;;8.76;100.00;98754.06;5055242;28;20486;-46
2024/01/04 02:05:16;;;;;;;7.00;4.05;;;;;;;8.77;100.00;98750.44;5055395;28;20049;-45
2024/01/04 02:07:45;;;;;;;10.60;4.50;;;;;;;8.78;100.00;98752.13;5055328;28;20056;-46
2024/01/04 02:10:14;;;;;;;8.75;4.38;;;;;;;8.79;100.00;98753.84;5055126;28;20053;-48
2024/01/04 02:12:42;;;;;;;8.82;3.92;;;;;;;8.83;100.00;98753.47;5055487;28;20045;-45
2024/01/04 02:15:11;;;;;;;9.18;4.10;;;;;;;8.85;100.00;98740.06;5055370;28;20391;-47
2024/01/04 02:17:41;;;;;;;7.90;4.15;;;;;;;8.87;100.00;98733.66;5055014;28;20044;-45
2024/01/04 02:20:13;;;;;;;9.90;4.32;;;;;;;8.80;100.00;98726.28;5055077;28;20084;-46
2024/01/04 02:22:44;;;;;;;11.88;4.90;;;;;;;8.81;100.00;98725.31;5054950;28;20131;-50
2024/01/04 02:25:12;;;;;;;7.82;4.88;;;;;;;8.79;100.00;98721.94;5054776;28;20498;-45
2024/01/04 02:27:41;;;;;;;9.25;5.25;;;;;;;8.77;100.00;98714.06;5055010;28;20076;-46
2024/01/04 02:30:11;;;;;;;10.40;5.68;;;;;;;8.69;100.00;98712.97;5054973;28;20045;-46
2024/01/04 02:32:40;;;;;;;10.75;5.65;;;;;;;8.58;100.00;98719.94;5054737;28;20057;-46
2024/01/04 02:35:09;;;;;;;9.98;5.78;;;;;;;8.60;100.00;98719.84;5054768;28;20049;-45
2024/01/04 02:37:37;;;;;;;10.13;5.65;;;;;;;8.64;100.00;98712.47;5054444;28;20049;-46
2024/01/04 02:40:08;;;;;;;10.80;6.03;;;;;;;8.61;100.00;98708.25;5054902;28;20041;-44
2024/01/04 02:42:37;;;;;;;11.57;6.40;;;;;;;8.52;100.00;98699.16;5054636;28;20060;-46
2024/01/04 02:45:05;;;;;;;9.98;5.90;;;;;;;8.54;100.00;98725.63;5054604;28;20056;-46
2024/01/04 02:47:34;;;;;;;10.18;5.95;;;;;;;8.51;100.00;98734.69;5054746;28;20045;-46
2024/01/04 02:50:03;;;;;;;11.90;6.18;;;;;;;8.54;100.00;98745.06;5054436;28;20098;-44
2024/01/04 02:52:31;;;;;;;12.48;5.78;;;;;;;8.55;100.00;98752.06;5054825;28;20140;-45
2024/01/04 02:55:00;;;;;;;11.63;5.80;;;;;;;8.52;100.00;98752.31;5055303;28;20052;-46
2024/01/04 02:57:29;;;;;;;10.90;5.68;;;;;;;8.55;100.00;98745.91;5054774;28;20075;-46
2024/01/04 02:59:58;;;;;;;14.07;5.63;;;;;;;8.54;100.00;98754.84;5054815;28;20137;-47
2024/01/04 03:02:26;;;;;;;12.00;6.15;;;;;;;8.55;100.00;98754.72;5054594;28;20045;-46
2024/01/04 03:04:54;;;;;;;11.93;5.68;;;;;;;8.55;100.00;98762.69;5062917;28;20056;-46
2024/01/04 03:07:23;;;;;;;9.25;5.35;;;;;;;8.57;100.00;98766.09;5075828;28;20044;-47
2024/01/04 03:09:51;;;;;;;10.65;5.25;;;;;;;8.47;100.00;98759.78;5075361;28;20127;-47
2024/01/04 03:12:20;;;;;;;10.02;5.03;;;;;;;8.44;100.00;98749.38;5074911;28;20059;-46
2024/01/04 03:14:49;;;;;;;13.98;5.10;;;;;;;8.42;100.00;98746.00;5075181;28;20429;-48
2024/01/04 03:17:18;;;;;;;10.55;4.95;;;;;;;8.41;100.00;98744.31;5075149;28;20407;-46
2024/01/04 03:19:46;;;;;;;10.60;4.93;;;;;;;8.42;100.00;98743.34;5079798;28;20481;-46
2024/01/04 03:22:15;;;;;;;11.23;5.10;;;;;;;8.43;100.00;98736.22;5080038;28;20048;-47
2024/01/04 03:24:43;;;;;;;13.32;5.38;;;;;;;8.41;100.00;98728.38;5076547;28;20056;-45
2024/01/04 03:27:12;;;;;;;9.25;4.95;;;;;;;8.25;100.00;98738.41;5073684;28;20048;-47
2024/01/04 03:29:41;;;;;;;15.32;5.47;;;;;;;8.23;100.00;98732.38;5073720;28;20048;-46
2024/01/04 03:32:10;;;;;;;11.60;5.43;;;;;;;8.22;100.00;98736.84;5073964;28;20126;-46
2024/01/04 03:34:40;;;;;;;10.40;4.47;;;;;;;8.26;100.00;98740.09;5074000;28;20083;-46
2024/01/04 03:37:08;;;;;;;9.38;4.70;;;;;;;8.28;100.00;98757.59;5073776;28;20097;-47
2024/01/04 03:39:36;;;;;;;9.80;4.80;;;;;;;8.29;100.00;98746.00;5073652;28;20051;-45
2024/01/04 03:42:05;;;;;;;8.43;5.03;;;;;;;8.31;100.00;98722.88;5073452;28;20091;-47
2024/01/04 03:44:33;;;;;;;12.52;4.90;;;;;;;8.33;100.00;98731.56;5073371;28;20049;-45
2024/01/04 03:47:02;;;;;;;9.07;5.20;;;;;;;8.31;100.00;98732.66;5073628;28;20125;-45
2024/01/04 03:49:32;;;;;;;9.30;5.30;;;;;;;8.27;100.00;98720.53;5073504;28;20143;-46
2024/01/04 03:52:00;;;;;;;8.98;5.13;;;;;;;8.28;100.00;98706.28;5073421;28;20114;-46
2024/01/04 03:54:29;;;;;;;9.88;4.97;;;;;;;8.29;100.00;98705.31;5073306;28;20055;-46
2024/01/04 03:56:58;;;;;;;11.15;5.03;;;;;;;8.23;100.00;98700.50;5073178;28;20088;-47
2024/01/04 03:59:27;;;;;;;12.65;5.15;;;;;;;8.17;100.00;98695.63;5073594;28;20052;-44
2024/01/04 04:01:59;;;;;;;9.75;5.18;;;;;;;8.06;100.00;98700.91;5073192;28;20532;-45
2024/01/04 04:04:27;;;;;;;12.48;5.38;;;;;;;8.11;100.00;98704.06;5073194;28;20049;-46
2024/01/04 04:06:56;;;;;;;13.05;5.20;;;;;;;8.15;100.00;98708.19;5073335;28;20072;-46
2024/01/04 04:09:25;;;;;;;12.23;5.70;;;;;;;8.19;100.00;98706.97;5073197;28;20048;-45
2024/01/04 04:11:54;;;;;;;11.15;5.20;;;;;;;8.18;100.00;98699.97;5073584;28;20067;-47
2024/01/04 04:14:23;;;;;;;10.43;5.07;;;;;;;8.19;100.00;98701.66;5073205;28;20040;-46
2024/01/04 04:16:51;;;;;;;9.88;4.82;;;;;;;8.22;100.00;98693.50;5073491;28;20063;-45
2024/01/04 04:19:19;;;;;;;9.07;5.22;;;;;;;8.23;100.00;98697.84;5073392;28;20071;-45
2024/01/04 04:21:48;;;;;;;10.50;4.80;;;;;;;8.19;100.00;98696.34;5072920;28;20040;-45
2024/01/04 04:24:17;;;;;;;10.48;4.93;;;;;;;8.18;100.00;98702.63;5072711;28;20052;-46
2024/01/04 04:26:46;;;;;;;10.45;4.70;;;;;;;8.24;100.00;98702.19;5073244;28;20056;-45
2024/01/04 04:29:14;;;;;;;8.60;4.60;;;;;;;8.10;100.00;98720.94;5072814;28;20140;-45
2024/01/04 04:31:43;;;;;;;10.27;5.05;;;;;;;8.09;100.00;98738.69;5073071;28;20045;-45
2024/01/04 04:34:11;;;;;;;10.15;5.38;;;;;;;8.03;100.00;98734.69;5073153;28;20102;-47
2024/01/04 04:36:40;;;;;;;11.93;5.40;;;;;;;8.07;100.00;98734.47;5072778;28;20106;-45
2024/01/04 04:39:09;;;;;;;11.93;5.65;;;;;;;8.10;100.00;98745.69;5072953;28;20055;-46
2024/01/04 04:41:39;;;;;;;11.32;5.70;;;;;;;8.11;100.00;98746.56;5072912;28;20417;-46
2024/01/04 04:44:08;;;;;;;10.88;5.43;;;;;;;8.08;100.00;98749.44;5072837;28;20048;-46
2024/01/04 04:46:36;;;;;;;9.98;5.45;;;;;;;8.10;100.00;98740.38;5072476;28;20433;-45
2024/01/04 04:49:04;;;;;;;11.95;6.15;;;;;;;8.12;100.00;98746.44;5073008;28;20061;-47
2024/01/04 04:51:33;;;;;;;10.32;6.10;;;;;;;8.14;100.00;98747.16;5072765;28;20045;-45
2024/01/04 04:54:03;;;;;;;15.63;6.05;;;;;;;8.04;100.00;98746.16;5072277;28;20045;-46
2024/01/04 04:56:31;;;;;;;12.48;6.65;;;;;;;8.13;100.00;98739.31;5072259;28;20044;-45
2024/01/04 04:59:02;;;;;;;16.85;6.55;;;;;;;7.99;100.00;98727.91;5072132;28;20083;-46
2024/01/04 05:01:30;;;;;;;11.15;6.10;;;;;;;7.90;100.00;98717.94;5071971;28;20513;-45
2024/01/04 05:03:59;;;;;;;13.75;6.95;;;;;;;7.86;100.00;98716.50;5071869;28;20056;-45
2024/01/04 05:06:27;;;;;;;11.07;6.22;;;;;;;7.88;100.00;98722.53;5071986;28;20409;-45
2024/01/04 05:08:56;;;;;;;15.27;6.50;;;;;;;7.82;100.00;98720.34;5071935;28;20493;-46
2024/01/04 05:11:24;;;;;;;13.20;6.30;;;;;;;7.45;100.00;98722.16;5071753;28;20546;-46
2024/01/04 05:13:52;;;;;;;11.60;5.47;;;;;;;7.45;100.00;98725.66;5071842;28;20044;-47
2024/01/04 05:16:22;;;;;;;14.50;6.10;;;;;;;7.34;100.00;98714.97;5071527;28;20124;-45
2024/01/04 05:18:51;;;;;;;12.88;5.72;;;;;;;7.44;100.00;98723.97;5071724;28;20048;-46
2024/01/04 05:21:19;;;;;;;16.95;6.28;;;;;;;7.26;100.00;98712.00;5071943;28;20101;-46
2024/01/04 05:23:48;;;;;;;12.90;5.95;;;;;;;7.11;100.00;98719.22;5071911;28;20178;-47
2024/01/04 05:26:21;;;;;;;14.13;5.95;;;;;;;7.17;100.00;98720.59;5071529;28;20051;-45
2024/01/04 05:28:50;;;;;;;11.63;5.57;;;;;;;7.33;100.00;98718.53;5071546;28;20051;-45
2024/01/04 05:31:22;;;;;;;12.73;5.93;;;;;;;7.38;100.00;98727.03;5071959;28;20106;-45
2024/01/04 05:33:50;;;;;;;9.88;6.20;;;;;;;7.30;100.00;98725.88;5071226;28;20168;-47
2024/01/04 05:36:19;;;;;;;12.88;6.35;;;;;;;7.20;100.00;98724.84;5071697;28;20163;-46
2024/01/04 05:38:47;;;;;;;14.10;6.35;;;;;;;7.28;100.00;98733.94;5071643;28;20123;-46
2024/01/04 05:41:16;;;;;;;11.15;5.97;;;;;;;7.30;100.00;98734.69;5071550;28;20414;-44
2024/01/04 05:43:46;;;;;;;10.60;5.88;;;;;;;7.43;100.00;98742.63;5071321;28;20086;-46
2024/01/04 05:46:14;;;;;;;13.20;6.25;;;;;;;7.46;100.00;98764.47;5071293;28;20555;-46
2024/01/04 05:48:44;;;;;;;11.95;6.00;;;;;;;7.52;100.00;98770.28;5071635;28;20044;-46
2024/01/04 05:51:12;;;;;;;12.07;5.68;;;;;;;7.51;100.00;98784.53;5071509;28;20140;-45
2024/01/04 05:53:40;;;;;;;14.73;6.40;;;;;;;7.45;100.00;98781.38;5071494;28;20526;-46
2024/01/04 05:56:08;;;;;;;15.00;6.50;;;;;;;7.45;100.00;98785.81;5071167;28;20045;-45
2024/01/04 05:58:37;;;;;;;15.68;5.85;;;;;;;7.55;100.00;98786.03;5071541;28;20129;-45
2024/01/04 06:01:06;;;;;;;11.50;5.60;;;;;;;7.41;100.00;98785.16;5070968;28;20084;-45
2024/01/04 06:03:34;;;;;;;13.45;6.10;;;;;;;7.28;100.00;98778.19;5071491;28;20409;-46
2024/01/04 06:06:04;;;;;;;14.80;5.65;;;;;;;7.42;100.00;98780.72;5071302;28;20466;-45
2024/01/04 06:08:33;;;;;;;10.93;5.47;;;;;;;7.29;100.00;98775.44;5071159;28;20045;-46
2024/01/04 06:11:05;;;;;;;12.10;5.72;;;;;;;7.40;100.00;98782.63;5071493;28;20402;-46
2024/01/04 06:13:34;;;;;;;9.45;5.75;;;;;;;7.42;100.00;98789.50;5071383;28;20052;-45
2024/01/04 06:16:06;;;;;;;16.20;6.00;;;;;;;7.49;100.00;98786.44;5071172;28;20053;-45
2024/01/04 06:18:35;;;;;;;10.40;5.82;;;;;;;7.48;100.00;98780.28;5071175;28;20079;-46
2024/01/04 06:21:05;;;;;;;9.82;5.53;;;;;;;7.36;100.00;98782.00;5071153;28;20052;-46
2024/01/04 06:23:34;;;;;;;12.88;5.38;;;;;;;7.52;100.00;98792.38;5071433;28;20073;-45
2024/01/04 06:26:02;;;;;;;15.57;6.05;;;;;;;7.53;100.00;98788.78;5071071;28;20040;-46
2024/01/04 06:28:31;;;;;;;13.00;5.65;;;;;;;7.60;100.00;98789.19;5071057;28;20447;-45
2024/01/04 06:30:59;;;;;;;11.48;5.53;;;;;;;7.50;100.00;98788.13;5070949;28;20041;-46
2024/01/04 06:33:27;;;;;;;13.77;5.65;;;;;;;7.42;100.00;98802.78;5070903;28;20048;-46
2024/01/04 06:35:56;;;;;;;13.10;6.35;;;;;;;7.51;100.00;98803.94;5070798;28;20132;-46
2024/01/04 06:38:27;;;;;;;13.52;5.70;;;;;;;7.55;100.00;98802.78;5070920;28;20151;-45
2024/01/04 06:40:57;;;;;;;13.00;5.43;;;;;;;7.57;100.00;98789.41;5067772;28;20044;-48
2024/01/04 06:43:26;;;;;;;12.82;5.90;;;;;;;7.65;100.00;98798.53;5070599;28;20048;-45
2024/01/04 06:45:55;;;;;;;8.77;4.97;;;;;;;7.71;100.00;98798.06;5071182;28;20072;-44
2024/01/04 06:48:24;;;;;;;10.60;5.18;;;;;;;7.78;100.00;98797.63;5074238;28;20450;-46
2024/01/04 06:50:52;;;;;;;11.73;5.13;;;;;;;7.79;100.00;98797.53;5074204;28;20066;-46
2024/01/04 06:53:20;;;;;;;9.13;4.38;;;;;;;7.84;100.00;98798.06;5074410;28;20098;-46
2024/01/04 06:55:50;;;;;;;9.05;4.82;;;;;;;7.88;100.00;98798.66;5074524;28;20087;-46
2024/01/04 06:58:19;;;;;;;10.05;4.90;;;;;;;7.92;100.00;98786.88;5074267;28;20566;-47
2024/01/04 07:00:47;;;;;;;10.80;4.68;;;;;;;7.99;100.00;98790.78;5074181;28;20048;-45
2024/01/04 07:03:16;;;;;;;9.52;4.53;;;;;;;8.06;100.00;98802.66;5074220;28;20064;-45
2024/01/04 07:05:45;;;;;;;8.90;4.53;;;;;;;8.12;100.00;98796.06;5074390;28;20052;-45
2024/01/04 07:08:14;;;;;;;9.45;4.72;;;;;;;8.15;100.00;98786.03;5074080;28;20049;-47
2024/01/04 07:10:42;;;;;;;9.10;4.25;;;;;;;8.19;100.00;98776.88;5073724;28;20045;-46
2024/01/04 07:13:12;;;;;;;8.75;4.10;;;;;;;8.20;100.00;98783.91;5073777;28;20131;-45
2024/01/04 07:15:40;;;;;;;7.78;3.75;;;;;;;8.31;100.00;98781.31;5073681;28;20065;-48
2024/01/04 07:18:09;;;;;;;8.27;3.65;;;;;;;8.41;100.00;98791.28;5073730;28;20057;-46
2024/01/04 07:20:41;;;;;;;8.20;3.95;;;;;;;8.53;100.00;98793.88;5073840;28;20054;-49
2024/01/04 07:23:09;;;;;;;7.97;3.60;;;;;;;8.64;100.00;98786.91;5073706;28;20053;-46
2024/01/04 07:25:38;;;;;;;11.10;4.18;;;;;;;8.76;100.00;98791.28;5073603;28;20135;-46
2024/01/04 07:28:06;;;;;;;7.57;3.45;;;;;;;8.85;100.00;98783.44;5073227;28;20147;-47
2024/01/04 07:30:36;;;;;;;8.02;3.47;;;;;;;8.98;100.00;98791.34;5073276;28;20090;-47
2024/01/04 07:33:05;;;;;;;7.32;3.25;;;;;;;9.05;100.00;98800.53;5073520;28;20102;-45
2024/01/04 07:35:34;;;;;;;6.75;2.88;;;;;;;9.13;100.00;98784.84;5073344;28;20072;-46
2024/01/04 07:38:02;;;;;;;8.20;3.00;;;;;;;9.21;100.00;98788.72;5073227;28;20070;-48
2024/01/04 07:40:30;;;;;;;9.38;2.63;;;;;;;9.31;100.00;98787.88;5072758;28;20048;-45
2024/01/04 07:43:07;;;;;;;8.50;2.97;;;;;;;9.40;100.00;98789.00;5073157;28;20048;-44
2024/01/04 07:45:36;;;;;;;5.15;2.20;;;;;;;9.57;100.00;98779.69;5073136;28;20048;-45
2024/01/04 07:48:06;;;;;;;6.80;2.63;;;;;;;9.61;100.00;98779.31;5073289;28;20068;-47
2024/01/04 07:50:34;;;;;;;6.43;2.40;;;;;;;9.72;100.00;98775.78;5073243;28;20052;-44
2024/01/04 07:53:02;;;;;;;7.57;3.10;;;;;;;9.79;100.00;98786.78;5073010;28;20047;-45
2024/01/04 07:55:31;;;;;;;9.82;3.85;;;;;;;9.72;100.00;98792.59;5073420;28;20151;-45
2024/01/04 07:57:59;;;;;;;7.80;3.40;;;;;;;9.73;100.00;98794.28;5104599;28;20047;-46
2024/01/04 08:00:27;;;;;;;7.95;3.80;;;;;;;9.82;100.00;98795.38;5073178;28;20112;-43
2024/01/04 08:02:57;;;;;;;5.43;2.30;;;;;;;9.90;100.00;98795.63;5072980;28;20072;-47
2024/01/04 08:05:26;;;;;;;8.55;1.85;;;;;;;10.12;100.00;98801.84;5072870;28;20044;-46
2024/01/04 08:07:54;;;;;;;3.42;1.35;;;;;;;10.25;100.00;98784.81;5072649;28;20078;-46
2024/01/04 08:10:22;;;;;;;4.00;1.60;;;;;;;10.40;100.00;98781.81;5072960;28;20045;-45
2024/01/04 08:12:50;;;;;;;8.88;2.00;;;;;;;10.48;100.00;98779.38;5072924;28;20041;-46
2024/01/04 08:15:19;;;;;;;3.97;1.40;;;;;;;10.58;100.00;98785.63;5072769;28;20114;-45
2024/01/04 08:17:47;;;;;;;3.47;0.95;;;;;;;10.74;100.00;98780.72;5072461;28;20048;-47
2024/01/04 08:20:18;;;;;;;2.00;0.90;;;;;;;10.84;100.00;98778.97;5072519;28;20040;-46
2024/01/04 08:22:47;;;;;;;2.72;0.77;;;;;;;10.99;100.00;98775.97;5072949;28;20109;-46
2024/01/04 08:25:15;;;;;;;2.70;1.38;;;;;;;11.14;100.00;98772.00;5072424;28;20056;-44
2024/01/04 08:27:43;;;;;;;1.70;0.65;;;;;;;11.22;100.00;98774.84;5072394;28;20049;-46
2024/01/04 08:30:13;;;;;;;2.00;0.90;;;;;;;11.39;100.00;98776.06;5072338;28;20052;-45
2024/01/04 08:32:42;;;;;;;2.72;1.00;;;;;;;11.50;100.00;98772.47;5072213;28;20040;-45
2024/01/04 08:35:10;;;;;;;2.40;0.73;;;;;;;11.60;100.00;98768.00;5072035;28;20044;-45
2024/01/04 08:37:40;;;;;;;4.65;1.00;;;;;;;11.71;100.00;98775.91;5072244;28;20048;-47
2024/01/04 08:40:09;;;;;;;3.42;1.20;;;;;;;11.75;100.00;98782.66;5071925;28;20143;-46
2024/01/04 08:42:38;;;;;;;3.38;0.70;;;;;;;11.82;100.00;98789.22;5071776;28;20401;-45
2024/01/04 08:45:08;;;;;;;3.83;0.80;;;;;;;11.84;100.00;98803.25;5071915;28;20527;-46
2024/01/04 08:47:36;;;;;;;2.28;0.82;;;;;;;11.92;100.00;98803.44;5071726;28;20130;-45
2024/01/04 08:50:08;;;;;;;2.38;1.20;;;;;;;11.91;100.00;98799.06;5071971;28;20052;-45
2024/01/04 08:52:36;;;;;;;2.88;0.60;;;;;;;11.93;100.00;98791.75;5071867;28;20110;-45
2024/01/04 08:55:07;;;;;;;3.55;1.10;;;;;;;11.91;100.00;98792.88;5071540;28;20044;-44
2024/01/04 08:57:35;;;;;;;2.38;0.70;;;;;;;12.00;100.00;98803.59;5071783;28;20139;-45
2024/01/04 09:00:05;;;;;;;3.38;0.73;;;;;;;11.93;100.00;98791.75;5071225;28;20456;-45
2024/01/04 09:02:33;;;;;;;2.33;0.73;;;;;;;11.95;100.00;98796.97;5071668;28;20137;-48
2024/01/04 09:05:02;;;;;;;2.00;0.60;;;;;;;11.97;100.00;98787.84;5071675;28;20468;-44
2024/01/04 09:07:30;;;;;;;2.80;0.77;;;;;;;12.00;100.00;98792.06;5071517;28;20480;-45
2024/01/04 09:09:59;;;;;;;1.58;0.50;;;;;;;11.94;100.00;98792.59;5071416;28;20044;-45
2024/01/04 09:12:28;;;;;;;1.48;0.60;;;;;;;11.95;100.00;98791.63;5071345;28;20460;-45
2024/01/04 09:14:58;;;;;;;2.92;0.80;;;;;;;11.87;100.00;98786.97;5071393;28;20144;-46
2024/01/04 09:17:26;;;;;;;1.58;0.70;;;;;;;11.99;100.00;98783.22;5071334;28;20052;-44
2024/01/04 09:19:55;;;;;;;2.05;0.70;;;;;;;11.77;100.00;98791.38;5071618;28;20048;-45
2024/01/04 09:22:23;;;;;;;4.95;1.00;;;;;;;11.71;100.00;98789.28;5071560;28;20102;-45
2024/01/04 09:24:52;;;;;;;5.90;1.27;;;;;;;11.76;100.00;98795.03;5071751;28;20049;-49
2024/01/04 09:27:21;;;;;;;2.70;1.30;;;;;;;11.83;100.00;98795.38;5071109;28;20053;-45
2024/01/04 09:29:50;;;;;;;3.20;1.10;;;;;;;11.80;100.00;98801.84;5071503;28;20464;-46
2024/01/04 09:32:20;;;;;;;4.35;1.52;;;;;;;11.94;100.00;98804.13;5071291;28;20049;-45
2024/01/04 09:34:49;;;;;;;2.85;1.10;;;;;;;11.89;100.00;98822.41;5071346;28;20417;-47
2024/01/04 09:37:18;;;;;;;4.78;1.27;;;;;;;12.01;100.00;98815.97;5071562;28;20076;-46
2024/01/04 09:39:46;;;;;;;2.38;0.65;;;;;;;12.00;100.00;98819.63;5071207;28;20097;-46
2024/01/04 09:42:17;;;;;;;6.25;1.83;;;;;;;12.00;100.00;98822.31;5071565;28;20410;-46
2024/01/04 09:44:49;;;;;;;5.20;1.90;;;;;;;12.17;100.00;98820.81;5071532;28;20132;-45
2024/01/04 09:47:23;;;;;;;4.55;0.95;;;;;;;12.16;100.00;98820.94;5071632;28;20048;-44
2024/01/04 09:49:53;;;;;;;3.20;1.08;;;;;;;12.00;100.00;98829.50;5071282;28;20045;-47
2024/01/04 09:52:24;;;;;;;4.53;1.25;;;;;;;11.96;100.00;98820.03;5071206;28;20094;-46
2024/01/04 09:54:56;;;;;;;3.83;1.15;;;;;;;11.99;100.00;98827.81;5071299;28;20052;-45
2024/01/04 09:57:27;;;;;;;2.83;1.10;;;;;;;11.98;100.00;98823.44;5071344;28;20049;-45
2024/01/04 09:59:56;;;;;;;3.33;0.98;;;;;;;11.95;100.00;98835.22;5071226;28;20079;-47
2024/01/04 10:02:26;;;;;;;1.67;0.75;;;;;;;12.12;100.00;98832.88;5071280;28;20402;-45
2024/01/04 10:04:58;;;;;;;1.90;0.95;;;;;;;12.06;100.00;98834.28;5071249;28;20044;-45
2024/01/04 10:07:31;;;;;;;1.63;0.80;;;;;;;12.09;100.00;98843.88;5071249;28;20049;-44
2024/01/04 10:10:07;;;;;;;3.90;0.90;;;;;;;12.28;100.00;98846.59;5071259;28;20371;-47
2024/01/04 10:12:36;;;;;;;2.00;0.95;;;;;;;12.24;100.00;98845.16;5071153;28;20098;-47
2024/01/04 10:15:07;;;;;;;0.98;0.60;;;;;;;12.18;100.00;98835.03;5070998;28;20045;-45
2024/01/04 10:17:38;;;;;;;2.28;0.85;;;;;;;11.93;100.00;98847.88;5070701;28;20079;-44
2024/01/04 10:20:09;;;;;;;2.28;0.90;;;;;;;12.07;100.00;98848.50;5067554;28;20056;-45
2024/01/04 10:22:37;;;;;;;2.85;0.88;;;;;;;12.03;100.00;98858.59;5074202;28;20055;-44
2024/01/04 10:25:09;;;;;;;1.65;0.90;;;;;;;11.88;100.00;98852.78;5074226;28;20044;-45
2024/01/04 10:27:40;;;;;;;1.75;0.75;;;;;;;12.03;100.00;98846.09;5074555;28;20555;-44
2024/01/04 10:30:09;;;;;;;2.35;0.90;;;;;;;11.93;100.00;98853.22;5074372;28;20052;-44
2024/01/04 10:32:39;;;;;;;1.98;0.93;;;;;;;11.92;100.00;98886.28;5074747;28;20044;-47
2024/01/04 10:35:09;;;;;;;2.53;1.10;;;;;;;11.91;100.00;98881.91;5074859;28;20048;-45
2024/01/04 10:37:37;;;;;;;1.60;1.08;;;;;;;11.86;100.00;98875.25;5074642;28;20067;-45
2024/01/04 10:40:09;;;;;;;2.55;1.02;;;;;;;11.80;100.00;98891.84;5074362;28;20049;-45
2024/01/04 10:42:38;;;;;;;3.13;1.30;;;;;;;11.72;100.00;98879.09;5074357;28;20406;-46
2024/01/04 10:45:09;;;;;;;2.10;0.95;;;;;;;11.76;100.00;98889.38;5074283;28;20059;-44
2024/01/04 10:47:41;;;;;;;18.95;6.88;;;;;;;11.84;100.00;98878.06;5073939;28;20052;-45
2024/01/04 10:50:12;;;;;;;20.23;8.73;;;;;;;11.87;100.00;98871.59;5074182;28;20137;-46
2024/01/04 10:52:50;;;;;;;2.70;1.27;;;;;;;11.88;100.00;98863.47;5074193;28;20044;-45
2024/01/04 10:55:20;;;;;;;3.15;1.17;;;;;;;11.86;100.00;98865.41;5073777;28;20520;-46
2024/01/04 10:57:50;;;;;;;3.33;1.35;;;;;;;11.89;100.00;98859.81;5073041;28;20546;-45
2024/01/04 11:00:19;;;;;;;2.97;0.93;;;;;;;11.89;100.00;98859.81;5073439;28;20421;-46
2024/01/04 11:02:51;;;;;;;2.95;1.40;;;;;;;11.88;100.00;98857.28;5074032;28;20098;-45
2024/01/04 11:05:21;;;;;;;6.60;1.20;;;;;;;11.83;100.00;98849.66;5074247;28;20040;-47
2024/01/04 11:07:51;;;;;;;22.27;12.07;;;;;;;11.87;100.00;98847.56;5074442;28;20088;-47
2024/01/04 11:10:20;;;;;;;4.95;1.98;;;;;;;11.95;100.00;98859.28;5066421;28;20052;-45
2024/01/04 11:12:49;;;;;;;4.00;1.60;;;;;;;11.86;100.00;98856.56;5056926;28;20563;-44
2024/01/04 11:15:18;;;;;;;3.40;1.25;;;;;;;11.84;100.00;98851.34;5053871;28;20422;-44
2024/01/04 11:18:02;;;;;;;2.80;1.40;;;;;;;12.03;100.00;98850.59;5053314;28;20049;-47
2024/01/04 11:20:48;;;;;;;4.40;1.45;;;;;;;11.90;100.00;98853.50;5053544;28;20609;-46
2024/01/04 11:23:44;;;;;;;3.25;1.48;;;;;;;11.85;100.00;98853.03;5053507;28;20087;-46
2024/01/04 11:26:24;;;;;;;6.50;1.55;;;;;;;11.85;100.00;98861.06;5053375;28;20453;-46
2024/01/04 11:28:57;;;;;;;3.10;1.02;;;;;;;12.02;100.00;98859.59;5053668;28;20595;-44
2024/01/04 11:31:26;;;;;;;1.98;0.95;;;;;;;12.19;100.00;98856.28;5053108;28;20056;-45
2024/01/04 11:33:56;;;;;;;3.88;0.90;;;;;;;12.18;100.00;98861.75;5053169;28;20049;-46
2024/01/04 11:36:25;;;;;;;3.15;1.13;;;;;;;12.11;100.00;98856.09;5055699;28;20547;-52